Ana Sayfa
METAR-TAF:

METAR-TAF

Havaalanları :

Cuenca, Ekvador

Enlem: 02-53-22S, Boylam: 078-59-04W, yükseklik: 2532 m

Güncel hava durumu gözlemi

Rapor saat 15:00 UTC de 1 saat ve 5 dakika önce yapıldı.
Rüzgar güney/güneybatıdan 5 kt
Sıcaklık 18°C
Nem 73%
Basınç 1027 hPa
Görüş mesafesi 10 km veya daha fazla
3000 ft yükseklikte parçalı çok bulutlu
9000 ft yükseklikte parçalı çok bulutlu

METAR: SECU 141500Z 21005KT 9999 BKN030 BKN090 18/13 Q1027

Saat: 11:05 (16:05 UTC)


TAF: eksik

4.000'den fazla havaalanı için hava durumu gözlemleri ve tahminleri (METAR ve TAF raporları).

Kullanılabilir istasyonlar harita üzerinde sarı ve kırmızı noktalarla gösterilir.

İstasyonun adını görmek için fareyi noktanın üzerinde gezdirin.

Sonrasında hava gözlem ve tahminlerini görmek için tıklayın.

Haritayı değiştirmek için: yaklaştırmak için siyah artı işaretli yeşil düğmeye ve uzaklaştırmak için de eksi işaretli düğmeye hızla tıklayın; bitişik haritalar için yeşil okları kullanın.


METAR-TAF: